Portada
METAR-TAF:

METAR-TAF

Aeroports :

Aeroport Internacional de Tan Son Nhat

Ciutat Ho Chi Minh, Vietnam

latitud: 10-49N, longitud: 106-40E, altitud: 19 m

Observació

L'informe es va fer fa 49 minuts, a les 23:00 UTC
Vent 3 kt del Est/Nord-Est
Temperatura 24°C
Humitat 83%
Pressió 1011 hPa
Visibilitat: 8000 m
Escasses núvols a una alçada de 1700 ft

METAR: VVTS 262300Z 06003KT 8000 FEW017 24/21 Q1011 NOSIG

Hora: 06:49 (23:49 UTC)

Pronòstic

L'informe es va fer fa 49 minuts, a les 23:00 UTC
Pronòstic vàlid del 27 a les 00 UTC al 28 a les 06 UTC
Vent 7 kt del Est
Visibilitat 10 km o més
Núvols disperses a una alçada de 1700 ft
Evolucionant progressivament
l' 27 a les 06 UTC al 27 a les 07 UTC
Vent 10 kt del Sud/Sud-Est

TAF: VVTS 262300Z 2700/2806 09007KT 9999 SCT017 BECMG 2706/2707 16010KT

Observacions i pronòstics meteorològics de més de 4000 aeroports (METAR i TAF).

Les estacions disponibles són els punts grocs i vermells al mapa.

Posi el ratolí al punt desitjat per veure el nom de l'estació.

Feu clic per veure les observacions i els pronòstics meteorològics.

Per canviar el mapa: feu clic els botons verds amb una creu de color negre per apropar; al botó verd amb un guió per allunyar la imatge; o en les fletxes verdes per a mapes adjacents.


METAR-TAF: